createdAt,value
2022-09-23T06:37:28.119Z,100797.38
2022-09-23T06:40:32.118Z,100794.69
2022-09-23T06:43:34.927Z,100794.13
2022-09-23T06:46:37.947Z,100792.81
2022-09-23T06:49:40.673Z,100792.72
2022-09-23T06:52:51.288Z,100795.06
2022-09-23T06:56:03.953Z,100793.44
2022-09-23T06:59:10.166Z,100788.91
2022-09-23T07:02:14.334Z,100787.66
2022-09-23T07:05:18.926Z,100793.66
2022-09-23T07:08:21.563Z,100782.19
2022-09-23T07:11:24.587Z,100788.63
2022-09-23T07:14:27.170Z,100789.91
2022-09-23T07:17:30.852Z,100791.88
2022-09-23T07:20:34.439Z,100781.22
2022-09-23T07:23:37.972Z,100790.78
2022-09-23T07:26:45.483Z,100791.41
2022-09-23T07:29:52.432Z,100795.44
2022-09-23T07:32:56.369Z,100793.53
2022-09-23T07:35:59.401Z,100790.56
2022-09-23T07:39:03.727Z,100799.44
2022-09-23T07:42:07.084Z,100781.47
2022-09-23T07:45:09.868Z,100787.72
2022-09-23T07:48:12.835Z,100793.06
2022-09-23T07:51:21.756Z,100792.22
2022-09-23T07:54:25.747Z,100795.16
2022-09-23T07:57:28.394Z,100779.87
2022-09-23T08:00:31.492Z,100795.19
2022-09-23T08:03:35.406Z,100787.59
2022-09-23T08:06:43.348Z,100790.69
2022-09-23T08:09:46.257Z,100794.34
2022-09-23T08:12:49.090Z,100793.63
2022-09-23T08:15:55.358Z,100800.19
2022-09-23T08:18:58.533Z,100795.28
2022-09-23T08:22:01.557Z,100795.41
2022-09-23T08:25:06.052Z,100792.31
2022-09-23T08:28:10.584Z,100786.50
2022-09-23T08:31:14.306Z,100789.97
2022-09-23T08:34:19.752Z,100790.81
2022-09-23T08:37:22.684Z,100783.88
2022-09-23T08:40:25.943Z,100772.34
2022-09-23T08:43:31.494Z,100776.47
2022-09-23T08:46:48.164Z,100774.44
2022-09-23T08:49:59.716Z,100776.78
2022-09-23T08:53:07.977Z,100770.84
2022-09-23T08:56:15.139Z,100765.00
2022-09-23T08:59:41.230Z,100768.56
2022-09-23T09:02:44.158Z,100755.56
2022-09-23T09:05:54.138Z,100761.41
2022-09-23T09:09:01.139Z,100747.44
2022-09-23T09:12:17.589Z,100751.19
2022-09-23T09:15:29.589Z,100753.22
2022-09-23T09:18:35.205Z,100751.06
2022-09-23T09:21:42.744Z,100752.50
2022-09-23T09:24:50.041Z,100748.31
2022-09-23T09:27:54.865Z,100747.50
2022-09-23T09:31:03.204Z,100738.37
2022-09-23T09:34:24.560Z,100740.06
2022-09-23T09:37:39.654Z,100732.91
2022-09-23T09:40:48.481Z,100736.00
2022-09-23T09:43:56.485Z,100727.59
2022-09-23T09:47:32.532Z,100723.25
2022-09-23T09:50:53.161Z,100712.91
2022-09-23T09:54:17.564Z,100713.66
2022-09-23T09:57:37.274Z,100713.81
2022-09-23T10:00:45.858Z,100696.69
2022-09-23T10:03:53.060Z,100698.22
2022-09-23T10:07:13.677Z,100699.44
2022-09-23T10:10:33.245Z,100693.81
2022-09-23T10:13:38.073Z,100696.03
2022-09-23T10:16:42.274Z,100688.56
2022-09-23T10:19:49.807Z,100691.22
2022-09-23T10:22:55.692Z,100697.63
2022-09-23T10:26:03.873Z,100695.19
2022-09-23T10:29:33.670Z,100691.72
2022-09-23T10:32:43.428Z,100697.53
2022-09-23T10:35:58.551Z,100702.25
2022-09-23T10:39:22.998Z,100694.06
2022-09-23T10:42:51.903Z,100689.94
2022-09-23T10:46:21.837Z,100695.19
2022-09-23T10:49:43.947Z,100691.22
2022-09-23T10:53:28.429Z,100690.75
2022-09-23T10:56:43.238Z,100683.91
2022-09-23T11:00:11.567Z,100685.28
2022-09-23T11:04:06.230Z,100681.78
2022-09-23T11:07:27.719Z,100679.22
2022-09-23T11:10:56.059Z,100665.75
2022-09-23T11:14:30.234Z,100655.91
2022-09-23T11:18:02.993Z,100658.28
2022-09-23T11:21:09.509Z,100660.72
2022-09-23T11:24:52.353Z,100655.25
2022-09-23T11:28:24.249Z,100654.72
2022-09-23T11:32:12.221Z,100642.75
2022-09-23T11:35:47.918Z,100647.09
2022-09-23T11:38:52.711Z,100638.13
2022-09-23T11:41:59.530Z,100631.09
2022-09-23T11:45:21.700Z,100637.34
2022-09-23T11:48:33.842Z,100630.44
2022-09-23T11:52:19.749Z,100624.59
2022-09-23T11:55:31.889Z,100619.22
2022-09-23T11:58:58.262Z,100614.56
2022-09-23T12:02:17.768Z,100612.91
2022-09-23T12:05:32.248Z,100607.53
2022-09-23T12:08:38.372Z,100602.72
2022-09-23T12:11:51.124Z,100602.69
2022-09-23T12:15:12.176Z,100598.31
2022-09-23T12:18:25.114Z,100586.50
2022-09-23T12:21:50.286Z,100593.50
2022-09-23T12:25:13.199Z,100596.94
2022-09-23T12:28:18.553Z,100594.72
2022-09-23T12:31:33.929Z,100582.53
2022-09-23T12:34:49.397Z,100580.75
2022-09-23T12:38:00.593Z,100585.03
2022-09-23T12:41:29.258Z,100575.91
2022-09-23T12:44:47.302Z,100579.37
2022-09-23T12:47:50.061Z,100574.94
2022-09-23T12:51:06.840Z,100567.94
2022-09-23T12:54:23.085Z,100574.25
2022-09-23T12:57:35.380Z,100560.47
2022-09-23T13:00:38.040Z,100562.63
2022-09-23T13:04:18.035Z,100558.50
2022-09-23T13:07:30.139Z,100557.22
2022-09-23T13:10:42.122Z,100554.19
2022-09-23T13:13:48.631Z,100547.31
2022-09-23T13:16:53.587Z,100551.72
2022-09-23T13:20:38.535Z,100551.00
2022-09-23T13:24:13.582Z,100544.06
2022-09-23T13:27:37.306Z,100548.16
2022-09-23T13:30:50.497Z,100539.09
2022-09-23T13:34:03.218Z,100535.84
2022-09-23T13:37:22.443Z,100537.84
2022-09-23T13:40:29.868Z,100537.97
2022-09-23T13:43:44.071Z,100528.44
2022-09-23T13:46:54.497Z,100521.03
2022-09-23T13:49:58.003Z,100520.69
2022-09-23T13:53:06.653Z,100524.31
2022-09-23T13:56:15.605Z,100526.50
2022-09-23T13:59:28.563Z,100512.50
2022-09-23T14:02:31.574Z,100512.38
2022-09-23T14:05:36.031Z,100515.19
2022-09-23T14:08:43.155Z,100507.22
2022-09-23T14:11:47.074Z,100503.25
2022-09-23T14:14:56.207Z,100504.28
2022-09-23T14:18:06.464Z,100507.75
2022-09-23T14:21:27.685Z,100510.91
2022-09-23T14:24:31.483Z,100514.03
2022-09-23T14:27:36.631Z,100506.31
2022-09-23T14:30:39.874Z,100505.44
2022-09-23T14:33:43.633Z,100507.13
2022-09-23T14:37:05.127Z,100505.97
2022-09-23T14:40:50.974Z,100502.75
2022-09-23T14:44:02.252Z,100494.81
2022-09-23T14:47:08.024Z,100500.53
2022-09-23T14:50:47.254Z,100500.59
2022-09-23T14:53:49.908Z,100494.25
2022-09-23T14:56:56.376Z,100494.87
2022-09-23T15:00:09.887Z,100487.72
2022-09-23T15:03:17.133Z,100484.91
2022-09-23T15:06:23.217Z,100486.19
2022-09-23T15:09:35.389Z,100489.03
2022-09-23T15:12:38.402Z,100486.75
2022-09-23T15:15:42.884Z,100485.66
2022-09-23T15:18:53.612Z,100485.34
2022-09-23T15:21:56.598Z,100479.47
2022-09-23T15:25:40.281Z,100478.31
2022-09-23T15:28:44.070Z,100473.53
2022-09-23T15:31:46.973Z,100475.97
2022-09-23T15:34:50.938Z,100469.97
2022-09-23T15:38:00.730Z,100468.81
2022-09-23T15:41:04.212Z,100475.62
2022-09-23T15:44:15.311Z,100474.03
2022-09-23T15:47:18.933Z,100477.25
2022-09-23T15:50:21.875Z,100467.28
2022-09-23T15:53:28.154Z,100465.28
2022-09-23T15:56:30.745Z,100473.31
2022-09-23T15:59:34.946Z,100466.50
2022-09-23T16:02:37.695Z,100459.72
2022-09-23T16:05:43.321Z,100463.75
2022-09-23T16:08:48.469Z,100468.91
2022-09-23T16:11:52.392Z,100466.09
2022-09-23T16:14:55.804Z,100472.88
2022-09-23T16:18:00.164Z,100477.25
2022-09-23T16:21:04.694Z,100468.84
2022-09-23T16:24:21.013Z,100473.22
2022-09-23T16:27:26.206Z,100472.38
2022-09-23T16:30:34.444Z,100467.94
2022-09-23T16:33:37.129Z,100471.06
2022-09-23T16:36:43.284Z,100473.69
2022-09-23T16:39:49.671Z,100463.25
2022-09-23T16:42:55.124Z,100461.91
2022-09-23T16:45:58.118Z,100462.09
2022-09-23T16:49:03.042Z,100462.41
2022-09-23T16:52:05.812Z,100460.22
2022-09-23T16:55:10.773Z,100457.56
2022-09-23T16:58:13.833Z,100459.44
2022-09-23T17:01:43.694Z,100460.50
2022-09-23T17:04:46.759Z,100462.59
2022-09-23T17:07:49.740Z,100461.28
2022-09-23T17:10:59.369Z,100463.91
2022-09-23T17:14:03.503Z,100472.66
2022-09-23T17:17:09.464Z,100465.44
2022-09-23T17:20:21.259Z,100471.84
2022-09-23T17:23:25.522Z,100475.00
2022-09-23T17:26:36.348Z,100468.97
2022-09-23T17:29:42.132Z,100470.09
2022-09-23T17:32:50.743Z,100485.78
2022-09-23T17:36:03.221Z,100478.31
2022-09-23T17:39:14.136Z,100483.00
2022-09-23T17:42:25.423Z,100484.47
2022-09-23T17:45:29.960Z,100478.75
2022-09-23T17:48:38.815Z,100490.72
2022-09-23T17:51:50.284Z,100478.31
2022-09-23T17:54:59.193Z,100484.94
2022-09-23T17:58:08.613Z,100484.44
2022-09-23T18:01:24.910Z,100480.63
2022-09-23T18:04:29.901Z,100483.53
2022-09-23T18:07:38.526Z,100492.66
2022-09-23T18:10:50.718Z,100492.09
2022-09-23T18:14:05.954Z,100493.19
2022-09-23T18:17:14.229Z,100493.09
2022-09-23T18:20:24.348Z,100495.00
2022-09-23T18:23:32.761Z,100499.72
2022-09-23T18:26:42.254Z,100495.00
2022-09-23T18:29:51.922Z,100487.69
2022-09-23T18:32:58.475Z,100496.84
2022-09-23T18:36:12.394Z,100496.03
2022-09-23T18:39:20.312Z,100509.88
2022-09-23T18:42:26.788Z,100500.03
2022-09-23T18:45:36.166Z,100494.03
2022-09-23T18:49:07.042Z,100499.50
2022-09-23T18:52:15.789Z,100498.34
2022-09-23T18:55:26.813Z,100507.13
2022-09-23T18:58:36.199Z,100501.94
2022-09-23T19:01:39.904Z,100500.31
2022-09-23T19:04:47.587Z,100498.41
2022-09-23T19:07:57.084Z,100505.37
2022-09-23T19:11:10.030Z,100505.09
2022-09-23T19:14:18.529Z,100507.00
2022-09-23T19:17:27.378Z,100507.78
2022-09-23T19:20:39.338Z,100512.00
2022-09-23T19:24:14.049Z,100516.75
2022-09-23T19:27:20.138Z,100503.34
2022-09-23T19:30:34.761Z,100506.19
2022-09-23T19:33:50.381Z,100500.41
2022-09-23T19:37:01.633Z,100498.75
2022-09-23T19:40:16.734Z,100500.69
2022-09-23T19:43:26.646Z,100508.37
2022-09-23T19:46:32.612Z,100514.09
2022-09-23T19:49:35.747Z,100507.66
2022-09-23T19:52:38.832Z,100502.56
2022-09-23T19:55:43.308Z,100502.31
2022-09-23T19:58:59.340Z,100500.41
2022-09-23T20:02:05.005Z,100508.03
2022-09-23T20:05:19.694Z,100503.91
2022-09-23T20:08:29.457Z,100513.81
2022-09-23T20:11:40.483Z,100512.63
2022-09-23T20:14:44.445Z,100507.81
2022-09-23T20:17:57.580Z,100503.62
2022-09-23T20:21:07.188Z,100504.16
2022-09-23T20:24:16.488Z,100509.47
2022-09-23T20:27:26.987Z,100505.41
2022-09-23T20:30:41.906Z,100509.03
2022-09-23T20:33:59.673Z,100509.81
2022-09-23T20:37:13.647Z,100504.50
2022-09-23T20:40:20.300Z,100506.06
2022-09-23T20:43:31.173Z,100504.47
2022-09-23T20:46:37.822Z,100494.69
2022-09-23T20:49:49.644Z,100500.59
2022-09-23T20:52:59.319Z,100498.16
2022-09-23T20:56:09.541Z,100503.56
2022-09-23T20:59:15.941Z,100494.13
2022-09-23T21:02:27.291Z,100496.44
2022-09-23T21:05:40.060Z,100488.22
2022-09-23T21:08:50.755Z,100488.47
2022-09-23T21:12:02.825Z,100493.16
2022-09-23T21:15:12.262Z,100497.87
2022-09-23T21:18:27.554Z,100496.84
2022-09-23T21:21:37.555Z,100493.16
2022-09-23T21:25:26.988Z,100497.87
2022-09-23T21:28:15.854Z,100499.19
2022-09-23T21:31:29.666Z,100506.00
2022-09-23T21:34:40.564Z,100496.72
2022-09-23T21:37:48.224Z,100489.50
2022-09-23T21:41:05.568Z,100502.34
2022-09-23T21:44:11.505Z,100497.09
2022-09-23T21:47:20.285Z,100497.09
2022-09-23T21:50:31.932Z,100502.75
2022-09-23T21:53:41.923Z,100501.94
2022-09-23T21:56:49.363Z,100501.81
2022-09-23T21:59:56.909Z,100512.28
2022-09-23T22:03:07.012Z,100506.44
2022-09-23T22:06:18.003Z,100499.41
2022-09-23T22:09:27.400Z,100501.28
2022-09-23T22:12:36.548Z,100497.94
2022-09-23T22:15:48.787Z,100501.50
2022-09-23T22:19:02.318Z,100495.75
2022-09-23T22:22:14.763Z,100502.31
2022-09-23T22:25:26.517Z,100502.09
2022-09-23T22:28:54.224Z,100493.44
2022-09-23T22:32:26.038Z,100497.03
2022-09-23T22:35:35.928Z,100501.03
2022-09-23T22:38:46.151Z,100497.03
2022-09-23T22:41:53.140Z,100499.28
2022-09-23T22:45:04.798Z,100496.09
2022-09-23T22:48:16.027Z,100498.16
2022-09-23T22:51:26.613Z,100498.81
2022-09-23T22:54:34.189Z,100490.06
2022-09-23T22:57:42.019Z,100489.88
2022-09-23T23:00:48.958Z,100492.50
2022-09-23T23:03:59.807Z,100496.97
2022-09-23T23:07:07.616Z,100490.72
2022-09-23T23:10:21.065Z,100490.91
2022-09-23T23:13:34.364Z,100485.09
2022-09-23T23:16:45.904Z,100480.25
2022-09-23T23:19:54.669Z,100486.56
2022-09-23T23:23:05.876Z,100481.37
2022-09-23T23:26:18.964Z,100480.78
2022-09-23T23:29:26.703Z,100473.28
2022-09-23T23:32:38.095Z,100471.81
2022-09-23T23:35:50.642Z,100475.75
2022-09-23T23:38:53.425Z,100472.88
2022-09-23T23:41:58.171Z,100468.53
2022-09-23T23:45:00.814Z,100468.69
2022-09-23T23:48:04.343Z,100477.13
2022-09-23T23:51:08.750Z,100479.19
2022-09-23T23:54:13.601Z,100462.44
2022-09-23T23:57:16.253Z,100465.41
